sensor_id;sensor_type;location;lat;lon;timestamp;P1;durP1;ratioP1;P2;durP2;ratioP2
4023;SDS011;2026;51.002;13.668;2022-10-22T00:04:42;5.57;;;4.37;;
4023;SDS011;2026;51.002;13.668;2022-10-22T00:09:50;5.47;;;3.90;;
4023;SDS011;2026;51.002;13.668;2022-10-22T00:14:54;6.43;;;4.00;;
4023;SDS011;2026;51.002;13.668;2022-10-22T00:19:57;4.50;;;3.77;;
4023;SDS011;2026;51.002;13.668;2022-10-22T00:25:00;6.23;;;4.07;;
4023;SDS011;2026;51.002;13.668;2022-10-22T00:30:05;5.47;;;4.03;;
4023;SDS011;2026;51.002;13.668;2022-10-22T00:35:09;4.33;;;3.40;;
4023;SDS011;2026;51.002;13.668;2022-10-22T00:40:12;7.03;;;3.73;;
4023;SDS011;2026;51.002;13.668;2022-10-22T00:45:19;7.83;;;3.83;;
4023;SDS011;2026;51.002;13.668;2022-10-22T00:50:26;6.50;;;4.07;;
4023;SDS011;2026;51.002;13.668;2022-10-22T00:55:31;5.10;;;4.40;;
4023;SDS011;2026;51.002;13.668;2022-10-22T01:00:36;7.90;;;5.00;;
4023;SDS011;2026;51.002;13.668;2022-10-22T01:05:40;8.00;;;4.30;;
4023;SDS011;2026;51.002;13.668;2022-10-22T01:10:48;6.20;;;4.00;;
4023;SDS011;2026;51.002;13.668;2022-10-22T01:16:03;6.50;;;4.53;;
4023;SDS011;2026;51.002;13.668;2022-10-22T01:21:18;14.70;;;10.23;;
4023;SDS011;2026;51.002;13.668;2022-10-22T01:26:31;16.23;;;10.57;;
4023;SDS011;2026;51.002;13.668;2022-10-22T01:31:43;18.40;;;11.30;;
4023;SDS011;2026;51.002;13.668;2022-10-22T01:36:49;17.67;;;10.20;;
4023;SDS011;2026;51.002;13.668;2022-10-22T01:41:55;13.97;;;10.70;;
4023;SDS011;2026;51.002;13.668;2022-10-22T01:47:04;15.40;;;10.47;;
4023;SDS011;2026;51.002;13.668;2022-10-22T01:52:21;14.60;;;10.30;;
4023;SDS011;2026;51.002;13.668;2022-10-22T01:57:32;16.10;;;9.97;;
4023;SDS011;2026;51.002;13.668;2022-10-22T02:02:46;17.03;;;9.83;;
4023;SDS011;2026;51.002;13.668;2022-10-22T02:07:56;17.27;;;10.93;;
4023;SDS011;2026;51.002;13.668;2022-10-22T02:13:08;15.73;;;10.67;;
4023;SDS011;2026;51.002;13.668;2022-10-22T02:18:16;16.20;;;10.27;;
4023;SDS011;2026;51.002;13.668;2022-10-22T02:23:23;17.10;;;11.50;;
4023;SDS011;2026;51.002;13.668;2022-10-22T02:28:28;17.57;;;11.20;;
4023;SDS011;2026;51.002;13.668;2022-10-22T02:33:40;16.27;;;10.90;;
4023;SDS011;2026;51.002;13.668;2022-10-22T02:38:46;18.57;;;10.37;;
4023;SDS011;2026;51.002;13.668;2022-10-22T02:43:52;15.57;;;11.10;;
4023;SDS011;2026;51.002;13.668;2022-10-22T02:48:58;24.90;;;15.07;;
4023;SDS011;2026;51.002;13.668;2022-10-22T02:54:01;23.77;;;14.23;;
4023;SDS011;2026;51.002;13.668;2022-10-22T02:59:03;24.40;;;15.03;;
4023;SDS011;2026;51.002;13.668;2022-10-22T03:04:08;26.33;;;14.50;;
4023;SDS011;2026;51.002;13.668;2022-10-22T03:09:11;24.30;;;14.70;;
4023;SDS011;2026;51.002;13.668;2022-10-22T03:14:14;25.73;;;14.77;;
4023;SDS011;2026;51.002;13.668;2022-10-22T03:19:18;26.70;;;14.70;;
4023;SDS011;2026;51.002;13.668;2022-10-22T03:24:22;22.70;;;14.57;;
4023;SDS011;2026;51.002;13.668;2022-10-22T03:29:29;19.90;;;13.30;;
4023;SDS011;2026;51.002;13.668;2022-10-22T03:34:36;28.20;;;16.93;;
4023;SDS011;2026;51.002;13.668;2022-10-22T03:39:39;27.70;;;17.10;;
4023;SDS011;2026;51.002;13.668;2022-10-22T03:44:42;26.53;;;17.20;;
4023;SDS011;2026;51.002;13.668;2022-10-22T03:49:46;27.97;;;15.50;;
4023;SDS011;2026;51.002;13.668;2022-10-22T03:54:49;25.73;;;17.00;;
4023;SDS011;2026;51.002;13.668;2022-10-22T03:59:52;24.70;;;14.90;;
4023;SDS011;2026;51.002;13.668;2022-10-22T04:04:57;23.17;;;14.87;;
4023;SDS011;2026;51.002;13.668;2022-10-22T04:10:00;26.13;;;16.13;;
4023;SDS011;2026;51.002;13.668;2022-10-22T04:15:03;26.00;;;15.80;;
4023;SDS011;2026;51.002;13.668;2022-10-22T04:20:08;26.80;;;15.57;;
4023;SDS011;2026;51.002;13.668;2022-10-22T04:25:12;26.97;;;15.37;;
4023;SDS011;2026;51.002;13.668;2022-10-22T04:30:15;27.33;;;16.60;;
4023;SDS011;2026;51.002;13.668;2022-10-22T04:35:20;27.43;;;18.07;;
4023;SDS011;2026;51.002;13.668;2022-10-22T04:40:22;30.63;;;18.60;;
4023;SDS011;2026;51.002;13.668;2022-10-22T04:45:25;34.47;;;18.87;;
4023;SDS011;2026;51.002;13.668;2022-10-22T04:50:30;31.17;;;19.37;;
4023;SDS011;2026;51.002;13.668;2022-10-22T04:55:33;33.03;;;19.40;;
4023;SDS011;2026;51.002;13.668;2022-10-22T05:00:36;31.33;;;18.40;;
4023;SDS011;2026;51.002;13.668;2022-10-22T05:05:40;27.77;;;17.80;;
4023;SDS011;2026;51.002;13.668;2022-10-22T05:10:43;28.27;;;17.77;;
4023;SDS011;2026;51.002;13.668;2022-10-22T05:15:46;31.53;;;18.30;;
4023;SDS011;2026;51.002;13.668;2022-10-22T05:20:50;29.93;;;18.27;;
4023;SDS011;2026;51.002;13.668;2022-10-22T05:25:53;28.50;;;17.50;;
4023;SDS011;2026;51.002;13.668;2022-10-22T05:30:57;31.43;;;19.20;;
4023;SDS011;2026;51.002;13.668;2022-10-22T05:36:03;31.77;;;18.20;;
4023;SDS011;2026;51.002;13.668;2022-10-22T05:41:09;33.33;;;19.23;;
4023;SDS011;2026;51.002;13.668;2022-10-22T05:46:15;31.97;;;20.43;;
4023;SDS011;2026;51.002;13.668;2022-10-22T05:51:25;35.83;;;21.50;;
4023;SDS011;2026;51.002;13.668;2022-10-22T05:56:29;33.97;;;20.70;;
4023;SDS011;2026;51.002;13.668;2022-10-22T06:01:33;38.40;;;21.00;;
4023;SDS011;2026;51.002;13.668;2022-10-22T06:06:38;40.47;;;24.33;;
4023;SDS011;2026;51.002;13.668;2022-10-22T06:11:44;39.50;;;25.33;;
4023;SDS011;2026;51.002;13.668;2022-10-22T06:16:48;43.73;;;26.27;;
4023;SDS011;2026;51.002;13.668;2022-10-22T06:21:53;37.27;;;21.00;;
4023;SDS011;2026;51.002;13.668;2022-10-22T06:26:56;36.60;;;22.20;;
4023;SDS011;2026;51.002;13.668;2022-10-22T06:31:58;40.00;;;22.13;;
4023;SDS011;2026;51.002;13.668;2022-10-22T06:37:03;36.67;;;22.87;;
4023;SDS011;2026;51.002;13.668;2022-10-22T06:42:06;35.17;;;23.47;;
4023;SDS011;2026;51.002;13.668;2022-10-22T06:47:09;39.30;;;24.30;;
4023;SDS011;2026;51.002;13.668;2022-10-22T06:52:13;34.63;;;22.33;;
4023;SDS011;2026;51.002;13.668;2022-10-22T06:57:16;31.70;;;21.33;;
4023;SDS011;2026;51.002;13.668;2022-10-22T07:02:19;36.03;;;20.37;;
4023;SDS011;2026;51.002;13.668;2022-10-22T07:07:23;36.50;;;21.57;;
4023;SDS011;2026;51.002;13.668;2022-10-22T07:12:26;34.20;;;22.10;;
4023;SDS011;2026;51.002;13.668;2022-10-22T07:17:29;34.80;;;22.77;;
4023;SDS011;2026;51.002;13.668;2022-10-22T07:22:33;36.43;;;22.73;;
4023;SDS011;2026;51.002;13.668;2022-10-22T07:27:36;34.40;;;21.00;;
4023;SDS011;2026;51.002;13.668;2022-10-22T07:32:40;31.60;;;20.23;;
4023;SDS011;2026;51.002;13.668;2022-10-22T07:37:44;37.67;;;23.20;;
4023;SDS011;2026;51.002;13.668;2022-10-22T07:42:47;41.37;;;22.80;;
4023;SDS011;2026;51.002;13.668;2022-10-22T07:47:50;14.17;;;9.63;;
4023;SDS011;2026;51.002;13.668;2022-10-22T07:52:54;7.73;;;6.03;;
4023;SDS011;2026;51.002;13.668;2022-10-22T07:57:58;5.23;;;4.73;;
4023;SDS011;2026;51.002;13.668;2022-10-22T08:03:01;5.10;;;3.00;;
4023;SDS011;2026;51.002;13.668;2022-10-22T08:08:06;5.00;;;3.00;;
4023;SDS011;2026;51.002;13.668;2022-10-22T08:13:09;7.67;;;2.20;;
4023;SDS011;2026;51.002;13.668;2022-10-22T08:18:12;3.20;;;2.50;;
4023;SDS011;2026;51.002;13.668;2022-10-22T08:23:17;6.63;;;2.43;;
4023;SDS011;2026;51.002;13.668;2022-10-22T08:28:26;3.30;;;2.10;;
4023;SDS011;2026;51.002;13.668;2022-10-22T08:33:30;5.80;;;2.57;;
4023;SDS011;2026;51.002;13.668;2022-10-22T08:38:34;2.43;;;2.23;;
4023;SDS011;2026;51.002;13.668;2022-10-22T08:43:44;2.77;;;2.07;;
4023;SDS011;2026;51.002;13.668;2022-10-22T08:49:03;5.23;;;2.50;;
4023;SDS011;2026;51.002;13.668;2022-10-22T08:54:15;2.33;;;2.13;;
4023;SDS011;2026;51.002;13.668;2022-10-22T08:59:27;3.90;;;2.53;;
4023;SDS011;2026;51.002;13.668;2022-10-22T09:04:41;5.03;;;4.10;;
4023;SDS011;2026;51.002;13.668;2022-10-22T09:09:50;4.03;;;3.63;;
4023;SDS011;2026;51.002;13.668;2022-10-22T09:14:57;3.70;;;3.23;;
4023;SDS011;2026;51.002;13.668;2022-10-22T09:20:02;6.17;;;3.20;;
4023;SDS011;2026;51.002;13.668;2022-10-22T09:25:18;4.30;;;3.00;;
4023;SDS011;2026;51.002;13.668;2022-10-22T09:30:23;4.30;;;2.70;;
4023;SDS011;2026;51.002;13.668;2022-10-22T09:35:28;3.13;;;2.57;;
4023;SDS011;2026;51.002;13.668;2022-10-22T09:40:42;3.70;;;2.60;;
4023;SDS011;2026;51.002;13.668;2022-10-22T09:45:47;3.00;;;2.20;;
4023;SDS011;2026;51.002;13.668;2022-10-22T09:50:58;3.67;;;2.07;;
4023;SDS011;2026;51.002;13.668;2022-10-22T09:56:09;2.37;;;2.07;;
4023;SDS011;2026;51.002;13.668;2022-10-22T10:01:23;6.17;;;2.27;;
4023;SDS011;2026;51.002;13.668;2022-10-22T10:06:29;2.93;;;2.10;;
4023;SDS011;2026;51.002;13.668;2022-10-22T10:11:36;1.70;;;1.60;;
4023;SDS011;2026;51.002;13.668;2022-10-22T10:16:48;4.73;;;2.10;;
4023;SDS011;2026;51.002;13.668;2022-10-22T10:22:02;5.20;;;1.80;;
4023;SDS011;2026;51.002;13.668;2022-10-22T10:27:14;2.07;;;1.50;;
4023;SDS011;2026;51.002;13.668;2022-10-22T10:32:28;5.83;;;1.60;;
4023;SDS011;2026;51.002;13.668;2022-10-22T10:37:44;4.80;;;1.70;;
4023;SDS011;2026;51.002;13.668;2022-10-22T10:42:57;2.43;;;2.10;;
4023;SDS011;2026;51.002;13.668;2022-10-22T10:48:12;3.03;;;1.57;;
4023;SDS011;2026;51.002;13.668;2022-10-22T10:53:27;1.60;;;1.40;;
4023;SDS011;2026;51.002;13.668;2022-10-22T10:58:45;1.50;;;1.40;;
4023;SDS011;2026;51.002;13.668;2022-10-22T11:04:06;2.27;;;1.40;;
4023;SDS011;2026;51.002;13.668;2022-10-22T11:09:23;1.37;;;1.20;;
4023;SDS011;2026;51.002;13.668;2022-10-22T11:14:31;1.43;;;1.20;;
4023;SDS011;2026;51.002;13.668;2022-10-22T11:19:41;1.23;;;1.13;;
4023;SDS011;2026;51.002;13.668;2022-10-22T11:24:56;3.23;;;1.20;;
4023;SDS011;2026;51.002;13.668;2022-10-22T11:30:10;1.43;;;1.33;;
4023;SDS011;2026;51.002;13.668;2022-10-22T11:35:15;1.60;;;1.43;;
4023;SDS011;2026;51.002;13.668;2022-10-22T11:40:31;6.53;;;1.80;;
4023;SDS011;2026;51.002;13.668;2022-10-22T11:45:38;1.90;;;1.60;;
4023;SDS011;2026;51.002;13.668;2022-10-22T11:50:43;1.77;;;1.67;;
4023;SDS011;2026;51.002;13.668;2022-10-22T11:55:49;2.17;;;1.83;;
4023;SDS011;2026;51.002;13.668;2022-10-22T12:00:55;6.00;;;1.70;;
4023;SDS011;2026;51.002;13.668;2022-10-22T12:06:04;2.10;;;1.50;;
4023;SDS011;2026;51.002;13.668;2022-10-22T12:11:20;1.63;;;1.50;;
4023;SDS011;2026;51.002;13.668;2022-10-22T12:16:27;3.43;;;1.70;;
4023;SDS011;2026;51.002;13.668;2022-10-22T12:21:58;3.27;;;1.57;;
4023;SDS011;2026;51.002;13.668;2022-10-22T12:27:14;1.77;;;1.60;;
4023;SDS011;2026;51.002;13.668;2022-10-22T12:32:28;4.90;;;2.37;;
4023;SDS011;2026;51.002;13.668;2022-10-22T12:37:35;1.90;;;1.43;;
4023;SDS011;2026;51.002;13.668;2022-10-22T12:42:45;1.67;;;1.43;;
4023;SDS011;2026;51.002;13.668;2022-10-22T12:47:51;2.27;;;1.60;;
4023;SDS011;2026;51.002;13.668;2022-10-22T12:52:58;1.50;;;1.40;;
4023;SDS011;2026;51.002;13.668;2022-10-22T12:58:03;2.40;;;1.63;;
4023;SDS011;2026;51.002;13.668;2022-10-22T13:03:10;2.53;;;1.60;;
4023;SDS011;2026;51.002;13.668;2022-10-22T13:08:26;1.60;;;1.50;;
4023;SDS011;2026;51.002;13.668;2022-10-22T13:13:31;1.30;;;1.20;;
4023;SDS011;2026;51.002;13.668;2022-10-22T13:18:37;4.50;;;1.60;;
4023;SDS011;2026;51.002;13.668;2022-10-22T13:23:40;1.73;;;1.57;;
4023;SDS011;2026;51.002;13.668;2022-10-22T13:28:55;1.73;;;1.43;;
4023;SDS011;2026;51.002;13.668;2022-10-22T13:34:03;1.30;;;1.20;;
4023;SDS011;2026;51.002;13.668;2022-10-22T13:39:15;1.90;;;1.80;;
4023;SDS011;2026;51.002;13.668;2022-10-22T13:44:19;1.50;;;1.40;;
4023;SDS011;2026;51.002;13.668;2022-10-22T13:49:24;1.33;;;1.23;;
4023;SDS011;2026;51.002;13.668;2022-10-22T13:54:27;2.33;;;2.13;;
4023;SDS011;2026;51.002;13.668;2022-10-22T13:59:30;2.07;;;1.87;;
4023;SDS011;2026;51.002;13.668;2022-10-22T14:04:34;3.23;;;1.73;;
4023;SDS011;2026;51.002;13.668;2022-10-22T14:09:40;1.67;;;1.57;;
4023;SDS011;2026;51.002;13.668;2022-10-22T14:14:44;2.57;;;1.80;;
4023;SDS011;2026;51.002;13.668;2022-10-22T14:19:48;1.87;;;1.57;;
4023;SDS011;2026;51.002;13.668;2022-10-22T14:24:51;1.50;;;1.40;;
4023;SDS011;2026;51.002;13.668;2022-10-22T14:29:54;1.40;;;1.30;;
4023;SDS011;2026;51.002;13.668;2022-10-22T14:35:01;2.20;;;1.40;;
4023;SDS011;2026;51.002;13.668;2022-10-22T14:40:05;1.80;;;1.50;;
4023;SDS011;2026;51.002;13.668;2022-10-22T14:45:10;6.43;;;2.83;;
4023;SDS011;2026;51.002;13.668;2022-10-22T14:50:18;1.80;;;1.70;;
4023;SDS011;2026;51.002;13.668;2022-10-22T14:55:21;3.67;;;1.57;;
4023;SDS011;2026;51.002;13.668;2022-10-22T15:00:26;2.40;;;1.40;;
4023;SDS011;2026;51.002;13.668;2022-10-22T15:05:30;2.70;;;1.80;;
4023;SDS011;2026;51.002;13.668;2022-10-22T15:10:33;1.70;;;1.60;;
4023;SDS011;2026;51.002;13.668;2022-10-22T15:15:38;1.70;;;1.60;;
4023;SDS011;2026;51.002;13.668;2022-10-22T15:20:43;6.83;;;1.83;;
4023;SDS011;2026;51.002;13.668;2022-10-22T15:25:46;3.03;;;2.13;;
4023;SDS011;2026;51.002;13.668;2022-10-22T15:30:53;6.90;;;4.47;;
4023;SDS011;2026;51.002;13.668;2022-10-22T15:35:58;3.53;;;2.27;;
4023;SDS011;2026;51.002;13.668;2022-10-22T15:41:11;2.50;;;2.30;;
4023;SDS011;2026;51.002;13.668;2022-10-22T15:46:15;2.47;;;2.27;;
4023;SDS011;2026;51.002;13.668;2022-10-22T15:51:21;3.03;;;2.50;;
4023;SDS011;2026;51.002;13.668;2022-10-22T15:56:24;10.70;;;8.53;;
4023;SDS011;2026;51.002;13.668;2022-10-22T16:01:29;67.37;;;50.17;;
4023;SDS011;2026;51.002;13.668;2022-10-22T16:06:36;49.27;;;36.53;;
4023;SDS011;2026;51.002;13.668;2022-10-22T16:11:41;58.53;;;40.23;;
4023;SDS011;2026;51.002;13.668;2022-10-22T16:16:44;24.73;;;19.23;;
4023;SDS011;2026;51.002;13.668;2022-10-22T16:21:51;15.70;;;12.23;;
4023;SDS011;2026;51.002;13.668;2022-10-22T16:26:55;10.63;;;9.53;;
4023;SDS011;2026;51.002;13.668;2022-10-22T16:31:57;11.00;;;9.03;;
4023;SDS011;2026;51.002;13.668;2022-10-22T16:37:02;7.50;;;6.80;;
4023;SDS011;2026;51.002;13.668;2022-10-22T16:42:10;14.67;;;11.60;;
4023;SDS011;2026;51.002;13.668;2022-10-22T16:47:13;6.37;;;5.77;;
4023;SDS011;2026;51.002;13.668;2022-10-22T16:52:18;24.63;;;19.57;;
4023;SDS011;2026;51.002;13.668;2022-10-22T16:57:21;9.17;;;6.33;;
4023;SDS011;2026;51.002;13.668;2022-10-22T17:02:24;50.90;;;42.43;;
4023;SDS011;2026;51.002;13.668;2022-10-22T17:07:28;7.10;;;3.40;;
4023;SDS011;2026;51.002;13.668;2022-10-22T17:12:31;6.50;;;3.00;;
4023;SDS011;2026;51.002;13.668;2022-10-22T17:17:35;5.17;;;3.60;;
4023;SDS011;2026;51.002;13.668;2022-10-22T17:22:40;3.93;;;3.60;;
4023;SDS011;2026;51.002;13.668;2022-10-22T17:27:44;6.07;;;4.37;;
4023;SDS011;2026;51.002;13.668;2022-10-22T17:32:47;5.40;;;4.20;;
4023;SDS011;2026;51.002;13.668;2022-10-22T17:37:51;7.40;;;5.87;;
4023;SDS011;2026;51.002;13.668;2022-10-22T17:42:54;4.33;;;3.60;;
4023;SDS011;2026;51.002;13.668;2022-10-22T17:47:58;6.40;;;4.60;;
4023;SDS011;2026;51.002;13.668;2022-10-22T17:53:02;7.53;;;3.90;;
4023;SDS011;2026;51.002;13.668;2022-10-22T17:58:05;4.07;;;3.70;;
4023;SDS011;2026;51.002;13.668;2022-10-22T18:03:08;4.33;;;3.80;;
4023;SDS011;2026;51.002;13.668;2022-10-22T18:08:13;7.83;;;6.77;;
4023;SDS011;2026;51.002;13.668;2022-10-22T18:13:16;7.80;;;5.10;;
4023;SDS011;2026;51.002;13.668;2022-10-22T18:18:21;4.60;;;3.83;;
4023;SDS011;2026;51.002;13.668;2022-10-22T18:23:26;9.60;;;5.20;;
4023;SDS011;2026;51.002;13.668;2022-10-22T18:28:29;4.90;;;3.47;;
4023;SDS011;2026;51.002;13.668;2022-10-22T18:33:33;5.93;;;5.30;;
4023;SDS011;2026;51.002;13.668;2022-10-22T18:38:38;7.10;;;4.00;;
4023;SDS011;2026;51.002;13.668;2022-10-22T18:43:41;4.90;;;4.20;;
4023;SDS011;2026;51.002;13.668;2022-10-22T18:48:44;10.80;;;7.53;;
4023;SDS011;2026;51.002;13.668;2022-10-22T18:53:50;17.73;;;15.83;;
4023;SDS011;2026;51.002;13.668;2022-10-22T18:59:16;8.03;;;5.07;;
4023;SDS011;2026;51.002;13.668;2022-10-22T19:04:21;8.37;;;4.63;;
4023;SDS011;2026;51.002;13.668;2022-10-22T19:09:25;6.20;;;5.50;;
4023;SDS011;2026;51.002;13.668;2022-10-22T19:14:28;7.80;;;6.30;;
4023;SDS011;2026;51.002;13.668;2022-10-22T19:19:31;6.83;;;5.80;;
4023;SDS011;2026;51.002;13.668;2022-10-22T19:24:35;16.80;;;6.00;;
4023;SDS011;2026;51.002;13.668;2022-10-22T19:29:38;6.77;;;4.83;;
4023;SDS011;2026;51.002;13.668;2022-10-22T19:34:41;14.33;;;8.83;;
4023;SDS011;2026;51.002;13.668;2022-10-22T19:39:46;7.40;;;5.13;;
4023;SDS011;2026;51.002;13.668;2022-10-22T19:44:50;9.93;;;5.07;;
4023;SDS011;2026;51.002;13.668;2022-10-22T19:49:53;5.50;;;4.60;;
4023;SDS011;2026;51.002;13.668;2022-10-22T19:54:57;4.13;;;3.70;;
4023;SDS011;2026;51.002;13.668;2022-10-22T20:00:00;6.90;;;5.57;;
4023;SDS011;2026;51.002;13.668;2022-10-22T20:05:23;9.67;;;5.97;;
4023;SDS011;2026;51.002;13.668;2022-10-22T20:10:28;5.33;;;4.07;;
4023;SDS011;2026;51.002;13.668;2022-10-22T20:15:31;17.60;;;14.73;;
4023;SDS011;2026;51.002;13.668;2022-10-22T20:20:36;10.70;;;5.60;;
4023;SDS011;2026;51.002;13.668;2022-10-22T20:25:41;12.13;;;7.43;;
4023;SDS011;2026;51.002;13.668;2022-10-22T20:30:45;30.67;;;23.37;;
4023;SDS011;2026;51.002;13.668;2022-10-22T20:35:56;6.83;;;5.60;;
4023;SDS011;2026;51.002;13.668;2022-10-22T20:41:02;8.70;;;7.80;;
4023;SDS011;2026;51.002;13.668;2022-10-22T20:46:11;5.00;;;3.13;;
4023;SDS011;2026;51.002;13.668;2022-10-22T20:51:17;8.93;;;3.67;;
4023;SDS011;2026;51.002;13.668;2022-10-22T20:56:22;10.47;;;6.43;;
4023;SDS011;2026;51.002;13.668;2022-10-22T21:01:25;9.17;;;4.80;;
4023;SDS011;2026;51.002;13.668;2022-10-22T21:06:28;6.10;;;4.57;;
4023;SDS011;2026;51.002;13.668;2022-10-22T21:11:33;7.67;;;5.63;;
4023;SDS011;2026;51.002;13.668;2022-10-22T21:16:38;21.10;;;15.83;;
4023;SDS011;2026;51.002;13.668;2022-10-22T21:21:42;8.03;;;5.40;;
4023;SDS011;2026;51.002;13.668;2022-10-22T21:26:46;21.87;;;14.30;;
4023;SDS011;2026;51.002;13.668;2022-10-22T21:31:49;38.40;;;22.93;;
4023;SDS011;2026;51.002;13.668;2022-10-22T21:36:53;7.10;;;3.10;;
4023;SDS011;2026;51.002;13.668;2022-10-22T21:41:57;4.27;;;3.00;;
4023;SDS011;2026;51.002;13.668;2022-10-22T21:47:00;3.67;;;3.30;;
4023;SDS011;2026;51.002;13.668;2022-10-22T21:52:04;3.93;;;3.13;;
4023;SDS011;2026;51.002;13.668;2022-10-22T21:57:08;4.87;;;3.47;;
4023;SDS011;2026;51.002;13.668;2022-10-22T22:02:11;4.90;;;3.07;;
4023;SDS011;2026;51.002;13.668;2022-10-22T22:07:14;5.93;;;2.97;;
4023;SDS011;2026;51.002;13.668;2022-10-22T22:12:19;6.83;;;3.30;;
4023;SDS011;2026;51.002;13.668;2022-10-22T22:17:21;6.00;;;3.00;;
4023;SDS011;2026;51.002;13.668;2022-10-22T22:22:24;6.63;;;2.90;;
4023;SDS011;2026;51.002;13.668;2022-10-22T22:27:29;6.07;;;2.40;;
4023;SDS011;2026;51.002;13.668;2022-10-22T22:32:32;7.07;;;2.60;;
4023;SDS011;2026;51.002;13.668;2022-10-22T22:37:35;5.33;;;3.10;;
4023;SDS011;2026;51.002;13.668;2022-10-22T22:42:39;4.23;;;2.50;;
4023;SDS011;2026;51.002;13.668;2022-10-22T22:47:42;5.47;;;3.03;;
4023;SDS011;2026;51.002;13.668;2022-10-22T22:52:45;4.13;;;2.47;;
4023;SDS011;2026;51.002;13.668;2022-10-22T22:57:50;3.33;;;2.87;;
4023;SDS011;2026;51.002;13.668;2022-10-22T23:02:53;12.33;;;6.50;;
4023;SDS011;2026;51.002;13.668;2022-10-22T23:07:56;17.80;;;9.07;;
4023;SDS011;2026;51.002;13.668;2022-10-22T23:13:01;20.10;;;10.63;;
4023;SDS011;2026;51.002;13.668;2022-10-22T23:18:04;11.73;;;8.00;;
4023;SDS011;2026;51.002;13.668;2022-10-22T23:23:07;10.73;;;6.50;;
4023;SDS011;2026;51.002;13.668;2022-10-22T23:28:11;14.83;;;7.30;;
4023;SDS011;2026;51.002;13.668;2022-10-22T23:33:14;4.90;;;2.83;;
4023;SDS011;2026;51.002;13.668;2022-10-22T23:38:19;7.27;;;3.30;;
4023;SDS011;2026;51.002;13.668;2022-10-22T23:43:24;5.10;;;2.33;;
4023;SDS011;2026;51.002;13.668;2022-10-22T23:48:27;3.40;;;2.70;;
4023;SDS011;2026;51.002;13.668;2022-10-22T23:53:30;5.40;;;2.73;;
4023;SDS011;2026;51.002;13.668;2022-10-22T23:58:35;4.10;;;2.53;;
